Smith Reynolds Airport
KINT : now visible

Airfield :











YOU CAN JOIN US ON...

 
LOGIN :

Register | Disclaimer

   EN    FR    IT 

 









Legend :    VFR   Marginal VFR   IFR   Intensive IFR   Very Intensive IFR
Visi :
Ceiling :
>= 8 km
>= 3000ft
5 to 8 km
1000 to 3000 ft
1500m to 5 km
500 to 1000 ft
800 to 1500m
200 to 500 ft
< 800m
< 200 ft
Symbols :   Thunderstorms  Fog  Heavy snow  Heavy precipitations  Wind > 20 kt






- Airport Elevation : 969 ft
- IATA code : INT


KINT - Smith Reynolds

CURRENT METAR :
  • 241654Z 02009G17KT 10SM OVC014 17/13 A3017 RMK AO2 SLP211 T01720133

EXPIRED METARs :
  • 241626Z 01009KT 10SM BKN011 OVC014 16/13 A3017 RMK AO2 T01610133
  • 241554Z 36009KT 10SM OVC008 16/13 A3017 RMK AO2 SLP210 T01610133
  • 241454Z 02007KT 6SM BR BKN008 OVC012 16/13 A3015 RMK AO2 CIG 006V010 SLP205 T01560133 51021

TAF KINT
Valid from the 24 at 18:00 until the 25 at 18:00 UTC


241720Z 2418/2518 01009KT P6SM OVC015
FM250200 05008KT P6SM OVC004
FM251700 07009KT P6SM OVC009
KZTL FIR / North America



MET'MAP, your aeronautical weather chart ! - Copyright ORBIFLY December 2007 - Disclaimer

ORBIFLY MET'MAP TEAM :

Programming & Development : Alexandra Zaïnal
Original concept : Baudouin d'Aumeries
Technical & hardware support : Manuel Goepfert
Assistance : Marc-Olivier Méhu

Contact : metmap@orbifly.com




SOURCES & CREDITS :

   NOAA       Earth
Advisory